sensor_id;sensor_type;location;lat;lon;timestamp;pressure;altitude;pressure_sealevel;temperature;humidity
51297;BME280;37380;45.186;9.792;2023-02-22T00:00:57;101325.25;;;9.22;100.00
51297;BME280;37380;45.186;9.792;2023-02-22T00:03:30;101441.50;;;10.05;100.00
51297;BME280;37380;45.186;9.792;2023-02-22T00:06:02;101364.97;;;9.52;100.00
51297;BME280;37380;45.186;9.792;2023-02-22T00:08:33;101147.13;;;8.52;100.00
51297;BME280;37380;45.186;9.792;2023-02-22T00:11:03;101176.97;;;8.58;100.00
51297;BME280;37380;45.186;9.792;2023-02-22T00:13:37;101325.56;;;9.28;100.00
51297;BME280;37380;45.186;9.792;2023-02-22T00:16:38;101170.44;;;8.32;100.00
51297;BME280;37380;45.186;9.792;2023-02-22T00:19:39;101181.19;;;8.38;100.00
51297;BME280;37380;45.186;9.792;2023-02-22T00:22:33;101157.00;;;8.25;100.00
51297;BME280;37380;45.186;9.792;2023-02-22T00:25:00;101257.41;;;8.87;100.00
51297;BME280;37380;45.186;9.792;2023-02-22T00:27:27;101189.94;;;8.41;100.00
51297;BME280;37380;45.186;9.792;2023-02-22T00:29:54;101427.03;;;9.76;100.00
51297;BME280;37380;45.186;9.792;2023-02-22T00:32:22;101281.16;;;8.93;100.00
51297;BME280;37380;45.186;9.792;2023-02-22T00:34:51;101451.94;;;10.05;100.00
51297;BME280;37380;45.186;9.792;2023-02-22T00:37:19;101437.31;;;9.91;100.00
51297;BME280;37380;45.186;9.792;2023-02-22T00:39:47;101256.13;;;8.78;100.00
51297;BME280;37380;45.186;9.792;2023-02-22T00:42:16;101328.16;;;9.28;100.00
51297;BME280;37380;45.186;9.792;2023-02-22T00:44:43;101256.44;;;8.84;100.00
51297;BME280;37380;45.186;9.792;2023-02-22T00:47:11;101313.50;;;8.96;100.00
51297;BME280;37380;45.186;9.792;2023-02-22T00:49:46;101150.97;;;8.26;100.00
51297;BME280;37380;45.186;9.792;2023-02-22T00:52:47;101164.25;;;8.14;100.00
51297;BME280;37380;45.186;9.792;2023-02-22T00:55:49;101178.16;;;8.47;100.00
51297;BME280;37380;45.186;9.792;2023-02-22T00:58:26;101436.97;;;10.01;100.00
51297;BME280;37380;45.186;9.792;2023-02-22T01:00:54;101222.63;;;8.68;100.00
51297;BME280;37380;45.186;9.792;2023-02-22T01:03:21;101318.22;;;9.21;100.00
51297;BME280;37380;45.186;9.792;2023-02-22T01:05:48;101308.50;;;9.01;100.00
51297;BME280;37380;45.186;9.792;2023-02-22T01:08:16;101211.44;;;8.53;100.00
51297;BME280;37380;45.186;9.792;2023-02-22T01:10:50;101221.38;;;8.44;100.00
51297;BME280;37380;45.186;9.792;2023-02-22T01:13:51;101369.63;;;9.58;100.00
51297;BME280;37380;45.186;9.792;2023-02-22T01:16:45;101200.75;;;8.48;100.00
51297;BME280;37380;45.186;9.792;2023-02-22T01:19:20;101301.25;;;9.12;100.00
51297;BME280;37380;45.186;9.792;2023-02-22T01:22:14;101246.56;;;8.61;100.00
51297;BME280;37380;45.186;9.792;2023-02-22T01:24:41;101160.38;;;7.89;100.00
51297;BME280;37380;45.186;9.792;2023-02-22T01:27:16;101316.16;;;8.98;100.00
51297;BME280;37380;45.186;9.792;2023-02-22T01:30:12;101142.06;;;8.21;100.00
51297;BME280;37380;45.186;9.792;2023-02-22T01:32:40;101432.00;;;9.71;100.00
51297;BME280;37380;45.186;9.792;2023-02-22T01:35:12;101115.19;;;7.55;100.00
51297;BME280;37380;45.186;9.792;2023-02-22T01:37:40;101418.59;;;9.29;100.00
51297;BME280;37380;45.186;9.792;2023-02-22T01:40:09;101443.50;;;9.57;100.00
51297;BME280;37380;45.186;9.792;2023-02-22T01:42:36;101251.44;;;8.55;100.00
51297;BME280;37380;45.186;9.792;2023-02-22T01:48:42;101351.19;;;9.37;100.00
51297;BME280;37380;45.186;9.792;2023-02-22T01:51:22;101449.09;;;9.83;100.00
51297;BME280;37380;45.186;9.792;2023-02-22T01:53:56;101216.78;;;8.56;100.00
51297;BME280;37380;45.186;9.792;2023-02-22T01:56:25;101252.13;;;8.85;100.00
51297;BME280;37380;45.186;9.792;2023-02-22T01:59:06;101116.31;;;7.76;100.00
51297;BME280;37380;45.186;9.792;2023-02-22T02:01:38;101312.84;;;9.00;100.00
51297;BME280;37380;45.186;9.792;2023-02-22T02:04:09;101274.63;;;9.01;100.00
51297;BME280;37380;45.186;9.792;2023-02-22T02:06:38;101388.22;;;9.48;100.00
51297;BME280;37380;45.186;9.792;2023-02-22T02:09:12;101407.13;;;9.78;100.00
51297;BME280;37380;45.186;9.792;2023-02-22T02:11:48;101110.69;;;8.01;100.00
51297;BME280;37380;45.186;9.792;2023-02-22T02:14:49;101127.13;;;8.00;100.00
51297;BME280;37380;45.186;9.792;2023-02-22T02:17:53;101267.38;;;8.95;100.00
51297;BME280;37380;45.186;9.792;2023-02-22T02:21:17;101397.94;;;9.68;100.00
51297;BME280;37380;45.186;9.792;2023-02-22T02:27:09;101158.88;;;8.27;100.00
51297;BME280;37380;45.186;9.792;2023-02-22T02:33:21;101400.03;;;9.75;100.00
51297;BME280;37380;45.186;9.792;2023-02-22T02:37:56;101397.31;;;9.56;100.00
51297;BME280;37380;45.186;9.792;2023-02-22T02:43:46;101365.56;;;9.29;100.00
51297;BME280;37380;45.186;9.792;2023-02-22T02:47:04;101366.75;;;9.36;100.00
51297;BME280;37380;45.186;9.792;2023-02-22T02:49:14;101395.97;;;9.46;100.00
51297;BME280;37380;45.186;9.792;2023-02-22T02:51:47;101291.69;;;8.78;100.00
51297;BME280;37380;45.186;9.792;2023-02-22T02:54:15;101059.13;;;7.43;100.00
51297;BME280;37380;45.186;9.792;2023-02-22T02:56:44;101370.44;;;9.05;100.00
51297;BME280;37380;45.186;9.792;2023-02-22T02:59:38;101104.84;;;7.56;100.00
51297;BME280;37380;45.186;9.792;2023-02-22T03:05:10;101378.16;;;9.38;100.00
51297;BME280;37380;45.186;9.792;2023-02-22T03:10:45;101046.28;;;7.46;100.00
51297;BME280;37380;45.186;9.792;2023-02-22T03:14:12;101382.25;;;9.33;100.00
51297;BME280;37380;45.186;9.792;2023-02-22T03:17:21;101089.84;;;7.51;100.00
51297;BME280;37380;45.186;9.792;2023-02-22T03:23:25;101391.19;;;9.38;100.00
51297;BME280;37380;45.186;9.792;2023-02-22T03:26:02;101244.91;;;8.63;100.00
51297;BME280;37380;45.186;9.792;2023-02-22T03:28:32;101260.72;;;8.66;100.00
51297;BME280;37380;45.186;9.792;2023-02-22T03:31:10;101226.19;;;8.70;100.00
51297;BME280;37380;45.186;9.792;2023-02-22T03:33:52;101236.47;;;8.67;100.00
51297;BME280;37380;45.186;9.792;2023-02-22T03:36:25;101210.75;;;8.57;100.00
51297;BME280;37380;45.186;9.792;2023-02-22T03:38:57;101314.19;;;9.10;100.00
51297;BME280;37380;45.186;9.792;2023-02-22T03:41:25;101044.25;;;7.57;100.00
51297;BME280;37380;45.186;9.792;2023-02-22T03:44:08;101217.78;;;8.42;100.00
51297;BME280;37380;45.186;9.792;2023-02-22T03:47:09;101068.22;;;7.35;100.00
51297;BME280;37380;45.186;9.792;2023-02-22T03:49:49;101064.97;;;7.56;100.00
51297;BME280;37380;45.186;9.792;2023-02-22T03:52:19;101380.94;;;9.24;100.00
51297;BME280;37380;45.186;9.792;2023-02-22T03:54:50;101277.28;;;8.84;100.00
51297;BME280;37380;45.186;9.792;2023-02-22T03:57:25;101252.72;;;8.79;100.00
51297;BME280;37380;45.186;9.792;2023-02-22T04:00:06;101271.97;;;8.99;100.00
51297;BME280;37380;45.186;9.792;2023-02-22T04:02:55;101286.38;;;8.93;100.00
51297;BME280;37380;45.186;9.792;2023-02-22T04:05:56;101242.34;;;8.81;100.00
51297;BME280;37380;45.186;9.792;2023-02-22T04:08:43;101213.88;;;8.50;100.00
51297;BME280;37380;45.186;9.792;2023-02-22T04:11:10;101062.69;;;7.62;100.00
51297;BME280;37380;45.186;9.792;2023-02-22T04:13:46;101207.75;;;8.33;100.00
51297;BME280;37380;45.186;9.792;2023-02-22T04:16:40;101082.28;;;7.71;100.00
51297;BME280;37380;45.186;9.792;2023-02-22T04:19:15;101350.03;;;9.14;100.00
51297;BME280;37380;45.186;9.792;2023-02-22T04:22:17;101184.09;;;8.28;100.00
51297;BME280;37380;45.186;9.792;2023-02-22T04:25:13;101042.38;;;7.55;100.00
51297;BME280;37380;45.186;9.792;2023-02-22T04:27:40;101189.44;;;8.31;100.00
51297;BME280;37380;45.186;9.792;2023-02-22T04:30:08;101222.72;;;8.37;100.00
51297;BME280;37380;45.186;9.792;2023-02-22T04:32:37;101209.47;;;8.16;100.00
51297;BME280;37380;45.186;9.792;2023-02-22T04:35:05;101251.03;;;8.31;100.00
51297;BME280;37380;45.186;9.792;2023-02-22T04:37:33;101202.72;;;8.20;100.00
51297;BME280;37380;45.186;9.792;2023-02-22T04:40:04;101181.47;;;8.28;100.00
51297;BME280;37380;45.186;9.792;2023-02-22T04:42:35;101073.44;;;7.68;100.00
51297;BME280;37380;45.186;9.792;2023-02-22T04:45:05;101329.59;;;9.05;100.00
51297;BME280;37380;45.186;9.792;2023-02-22T04:47:35;101082.44;;;7.58;100.00
51297;BME280;37380;45.186;9.792;2023-02-22T04:50:05;101268.50;;;8.82;100.00
51297;BME280;37380;45.186;9.792;2023-02-22T04:52:32;101267.41;;;8.61;100.00
51297;BME280;37380;45.186;9.792;2023-02-22T04:55:06;101352.56;;;9.30;100.00
51297;BME280;37380;45.186;9.792;2023-02-22T04:58:00;101181.00;;;8.03;100.00
51297;BME280;37380;45.186;9.792;2023-02-22T05:00:34;101114.22;;;7.85;100.00
51297;BME280;37380;45.186;9.792;2023-02-22T05:03:38;101194.66;;;8.31;100.00
51297;BME280;37380;45.186;9.792;2023-02-22T05:06:33;101218.69;;;8.42;100.00
51297;BME280;37380;45.186;9.792;2023-02-22T05:09:00;101150.34;;;8.13;100.00
51297;BME280;37380;45.186;9.792;2023-02-22T05:11:27;101231.75;;;8.60;100.00
51297;BME280;37380;45.186;9.792;2023-02-22T05:14:00;101010.56;;;7.26;100.00
51297;BME280;37380;45.186;9.792;2023-02-22T05:17:01;101027.25;;;7.47;100.00
51297;BME280;37380;45.186;9.792;2023-02-22T05:20:03;101370.44;;;9.05;100.00
51297;BME280;37380;45.186;9.792;2023-02-22T05:22:34;101204.28;;;8.00;100.00
51297;BME280;37380;45.186;9.792;2023-02-22T05:25:01;101102.25;;;7.56;100.00
51297;BME280;37380;45.186;9.792;2023-02-22T05:27:29;101071.47;;;7.31;100.00
51297;BME280;37380;45.186;9.792;2023-02-22T05:29:56;101065.31;;;7.45;100.00
51297;BME280;37380;45.186;9.792;2023-02-22T05:32:23;101215.63;;;8.34;100.00
51297;BME280;37380;45.186;9.792;2023-02-22T05:34:50;101101.38;;;7.72;100.00
51297;BME280;37380;45.186;9.792;2023-02-22T05:37:17;101125.56;;;7.87;100.00
51297;BME280;37380;45.186;9.792;2023-02-22T05:39:44;101355.25;;;9.14;100.00
51297;BME280;37380;45.186;9.792;2023-02-22T05:42:12;101352.13;;;9.21;100.00
51297;BME280;37380;45.186;9.792;2023-02-22T05:44:39;101076.03;;;7.68;100.00
51297;BME280;37380;45.186;9.792;2023-02-22T05:47:06;101255.69;;;8.53;100.00
51297;BME280;37380;45.186;9.792;2023-02-22T05:49:33;101117.44;;;7.65;100.00
51297;BME280;37380;45.186;9.792;2023-02-22T05:52:06;101332.59;;;9.13;100.00
51297;BME280;37380;45.186;9.792;2023-02-22T05:55:09;101280.94;;;8.88;100.00
51297;BME280;37380;45.186;9.792;2023-02-22T05:58:10;101361.19;;;9.12;100.00
51297;BME280;37380;45.186;9.792;2023-02-22T06:00:57;101021.69;;;7.23;100.00
51297;BME280;37380;45.186;9.792;2023-02-22T06:03:58;101198.59;;;8.07;100.00
51297;BME280;37380;45.186;9.792;2023-02-22T06:06:59;101040.19;;;7.13;100.00
51297;BME280;37380;45.186;9.792;2023-02-22T06:09:48;101365.38;;;9.08;100.00
51297;BME280;37380;45.186;9.792;2023-02-22T06:12:24;101078.44;;;7.32;100.00
51297;BME280;37380;45.186;9.792;2023-02-22T06:15:26;101278.97;;;8.50;100.00
51297;BME280;37380;45.186;9.792;2023-02-22T06:18:27;101171.91;;;7.62;100.00
51297;BME280;37380;45.186;9.792;2023-02-22T06:21:21;101357.56;;;8.92;100.00
51297;BME280;37380;45.186;9.792;2023-02-22T06:23:48;101150.94;;;7.75;100.00
51297;BME280;37380;45.186;9.792;2023-02-22T06:26:16;101333.69;;;8.84;100.00
51297;BME280;37380;45.186;9.792;2023-02-22T06:28:46;101255.34;;;8.63;100.00
51297;BME280;37380;45.186;9.792;2023-02-22T06:31:20;101070.66;;;7.48;100.00
51297;BME280;37380;45.186;9.792;2023-02-22T06:34:14;101361.47;;;9.00;100.00
51297;BME280;37380;45.186;9.792;2023-02-22T06:36:42;101251.97;;;8.48;100.00
51297;BME280;37380;45.186;9.792;2023-02-22T06:39:09;101279.09;;;8.69;100.00
51297;BME280;37380;45.186;9.792;2023-02-22T06:41:37;101364.28;;;9.04;100.00
51297;BME280;37380;45.186;9.792;2023-02-22T06:44:04;101273.69;;;8.48;100.00
51297;BME280;37380;45.186;9.792;2023-02-22T06:46:31;101352.28;;;8.90;100.00
51297;BME280;37380;45.186;9.792;2023-02-22T06:48:59;101086.75;;;7.25;100.00
51297;BME280;37380;45.186;9.792;2023-02-22T06:51:36;101279.91;;;8.19;100.00
51297;BME280;37380;45.186;9.792;2023-02-22T06:54:38;101317.53;;;8.57;100.00
51297;BME280;37380;45.186;9.792;2023-02-22T06:57:38;101219.41;;;8.07;100.00
51297;BME280;37380;45.186;9.792;2023-02-22T07:00:39;101221.41;;;8.29;100.00
51297;BME280;37380;45.186;9.792;2023-02-22T07:03:34;101241.13;;;8.24;100.00
51297;BME280;37380;45.186;9.792;2023-02-22T07:06:02;101405.91;;;9.19;100.00
51297;BME280;37380;45.186;9.792;2023-02-22T07:08:30;101165.66;;;7.75;100.00
51297;BME280;37380;45.186;9.792;2023-02-22T07:11:03;101280.50;;;8.46;100.00
51297;BME280;37380;45.186;9.792;2023-02-22T07:13:57;101292.97;;;8.52;100.00
51297;BME280;37380;45.186;9.792;2023-02-22T07:16:24;101388.41;;;9.00;100.00
51297;BME280;37380;45.186;9.792;2023-02-22T07:18:59;101196.00;;;8.23;100.00
51297;BME280;37380;45.186;9.792;2023-02-22T07:21:59;101251.47;;;8.38;100.00
51297;BME280;37380;45.186;9.792;2023-02-22T07:25:00;101240.72;;;8.32;100.00
51297;BME280;37380;45.186;9.792;2023-02-22T07:27:40;101258.22;;;8.51;100.00
51297;BME280;37380;45.186;9.792;2023-02-22T07:30:21;101318.75;;;8.64;100.00
51297;BME280;37380;45.186;9.792;2023-02-22T07:32:53;101397.72;;;9.29;100.00
51297;BME280;37380;45.186;9.792;2023-02-22T07:35:23;101414.22;;;9.28;100.00
51297;BME280;37380;45.186;9.792;2023-02-22T07:37:51;101099.75;;;7.74;100.00
51297;BME280;37380;45.186;9.792;2023-02-22T07:40:22;101337.97;;;9.16;100.00
51297;BME280;37380;45.186;9.792;2023-02-22T07:42:54;101392.69;;;9.50;100.00
51297;BME280;37380;45.186;9.792;2023-02-22T07:45:22;101324.97;;;9.00;100.00
51297;BME280;37380;45.186;9.792;2023-02-22T07:47:50;101394.03;;;9.42;100.00
51297;BME280;37380;45.186;9.792;2023-02-22T07:50:18;101393.09;;;9.58;100.00
51297;BME280;37380;45.186;9.792;2023-02-22T07:52:48;101382.66;;;9.58;100.00
51297;BME280;37380;45.186;9.792;2023-02-22T07:55:24;101394.97;;;9.61;100.00
51297;BME280;37380;45.186;9.792;2023-02-22T07:58:27;101384.72;;;9.65;100.00
51297;BME280;37380;45.186;9.792;2023-02-22T08:01:28;101338.16;;;9.37;100.00
51297;BME280;37380;45.186;9.792;2023-02-22T08:04:29;101349.19;;;9.49;100.00
51297;BME280;37380;45.186;9.792;2023-02-22T08:07:30;101324.81;;;9.31;100.00
51297;BME280;37380;45.186;9.792;2023-02-22T08:10:05;101390.25;;;9.71;100.00
51297;BME280;37380;45.186;9.792;2023-02-22T08:13:06;101375.13;;;9.64;100.00
51297;BME280;37380;45.186;9.792;2023-02-22T08:16:00;101389.59;;;9.75;100.00
51297;BME280;37380;45.186;9.792;2023-02-22T08:18:34;101220.91;;;8.87;100.00
51297;BME280;37380;45.186;9.792;2023-02-22T08:21:28;101390.34;;;9.91;100.00
51297;BME280;37380;45.186;9.792;2023-02-22T08:23:56;101294.25;;;9.28;100.00
51297;BME280;37380;45.186;9.792;2023-02-22T08:26:23;101208.16;;;8.75;100.00
51297;BME280;37380;45.186;9.792;2023-02-22T08:28:51;101265.53;;;8.93;100.00
51297;BME280;37380;45.186;9.792;2023-02-22T08:31:18;101226.28;;;8.90;100.00
51297;BME280;37380;45.186;9.792;2023-02-22T08:33:48;101399.28;;;9.96;100.00
51297;BME280;37380;45.186;9.792;2023-02-22T08:36:15;101189.88;;;8.73;100.00
51297;BME280;37380;45.186;9.792;2023-02-22T08:38:50;101379.00;;;9.90;100.00
51297;BME280;37380;45.186;9.792;2023-02-22T08:41:44;101250.97;;;9.32;100.00
51297;BME280;37380;45.186;9.792;2023-02-22T08:44:12;101338.06;;;9.71;100.00
51297;BME280;37380;45.186;9.792;2023-02-22T08:46:39;101222.19;;;8.95;100.00
51297;BME280;37380;45.186;9.792;2023-02-22T08:49:27;101329.06;;;9.47;100.00
51297;BME280;37380;45.186;9.792;2023-02-22T08:52:28;101335.56;;;9.55;100.00
51297;BME280;37380;45.186;9.792;2023-02-22T08:55:24;101377.09;;;9.86;100.00
51297;BME280;37380;45.186;9.792;2023-02-22T08:57:51;101356.19;;;9.68;100.00
51297;BME280;37380;45.186;9.792;2023-02-22T09:00:20;101370.41;;;10.11;100.00
51297;BME280;37380;45.186;9.792;2023-02-22T09:02:56;101283.81;;;9.64;100.00
51297;BME280;37380;45.186;9.792;2023-02-22T09:05:50;101356.88;;;10.19;100.00
51297;BME280;37380;45.186;9.792;2023-02-22T09:08:44;101296.63;;;9.78;100.00
51297;BME280;37380;45.186;9.792;2023-02-22T09:11:11;101283.28;;;9.36;100.00
51297;BME280;37380;45.186;9.792;2023-02-22T09:13:38;101240.00;;;9.39;100.00
51297;BME280;37380;45.186;9.792;2023-02-22T09:16:06;101361.97;;;10.16;100.00
51297;BME280;37380;45.186;9.792;2023-02-22T09:18:40;101363.13;;;10.41;100.00
51297;BME280;37380;45.186;9.792;2023-02-22T09:21:40;101325.47;;;10.18;100.00
51297;BME280;37380;45.186;9.792;2023-02-22T09:24:34;101376.19;;;10.60;100.00
51297;BME280;37380;45.186;9.792;2023-02-22T09:27:02;101294.91;;;10.15;100.00
51297;BME280;37380;45.186;9.792;2023-02-22T09:29:30;101362.75;;;10.71;100.00
51297;BME280;37380;45.186;9.792;2023-02-22T09:31:57;101371.44;;;10.91;100.00
51297;BME280;37380;45.186;9.792;2023-02-22T09:34:24;101347.06;;;10.51;100.00
51297;BME280;37380;45.186;9.792;2023-02-22T09:36:56;101287.78;;;10.31;100.00
51297;BME280;37380;45.186;9.792;2023-02-22T09:39:23;101102.38;;;9.34;100.00
51297;BME280;37380;45.186;9.792;2023-02-22T09:44:33;101364.28;;;10.86;100.00
51297;BME280;37380;45.186;9.792;2023-02-22T09:47:03;101164.50;;;9.60;100.00
51297;BME280;37380;45.186;9.792;2023-02-22T09:49:34;101335.50;;;10.85;100.00
51297;BME280;37380;45.186;9.792;2023-02-22T09:52:25;101329.16;;;10.80;100.00
51297;BME280;37380;45.186;9.792;2023-02-22T09:58:35;101365.13;;;11.26;100.00
51297;BME280;37380;45.186;9.792;2023-02-22T10:04:35;101316.75;;;10.95;100.00
51297;BME280;37380;45.186;9.792;2023-02-22T10:07:45;101310.34;;;10.68;100.00
51297;BME280;37380;45.186;9.792;2023-02-22T10:10:45;101325.78;;;10.82;100.00
51297;BME280;37380;45.186;9.792;2023-02-22T10:27:13;101347.75;;;11.07;100.00
51297;BME280;37380;45.186;9.792;2023-02-22T10:29:49;101309.78;;;10.55;100.00
51297;BME280;37380;45.186;9.792;2023-02-22T10:32:25;101315.69;;;10.32;100.00
51297;BME280;37380;45.186;9.792;2023-02-22T10:34:54;101343.66;;;10.73;100.00
51297;BME280;37380;45.186;9.792;2023-02-22T10:37:32;101296.56;;;10.72;100.00
51297;BME280;37380;45.186;9.792;2023-02-22T10:40:26;101312.09;;;10.88;100.00
51297;BME280;37380;45.186;9.792;2023-02-22T10:43:02;101230.59;;;10.37;100.00
51297;BME280;37380;45.186;9.792;2023-02-22T10:45:31;101316.66;;;10.94;100.00
51297;BME280;37380;45.186;9.792;2023-02-22T10:48:03;101326.91;;;11.50;100.00
51297;BME280;37380;45.186;9.792;2023-02-22T10:50:37;101344.47;;;11.32;100.00
51297;BME280;37380;45.186;9.792;2023-02-22T10:53:13;101273.91;;;11.13;100.00
51297;BME280;37380;45.186;9.792;2023-02-22T10:56:04;101334.97;;;11.77;100.00
51297;BME280;37380;45.186;9.792;2023-02-22T10:58:49;101327.50;;;11.66;100.00
51297;BME280;37380;45.186;9.792;2023-02-22T11:01:33;101337.53;;;11.76;100.00
51297;BME280;37380;45.186;9.792;2023-02-22T11:05:04;101321.16;;;12.03;100.00
51297;BME280;37380;45.186;9.792;2023-02-22T11:10:56;101263.31;;;11.09;100.00
51297;BME280;37380;45.186;9.792;2023-02-22T11:15:55;101302.56;;;11.96;100.00
51297;BME280;37380;45.186;9.792;2023-02-22T11:18:33;101282.41;;;11.94;100.00
51297;BME280;37380;45.186;9.792;2023-02-22T11:21:29;101306.16;;;12.69;100.00
51297;BME280;37380;45.186;9.792;2023-02-22T11:24:04;101240.91;;;12.05;100.00
51297;BME280;37380;45.186;9.792;2023-02-22T11:26:48;101245.31;;;12.06;100.00
51297;BME280;37380;45.186;9.792;2023-02-22T11:29:35;101297.22;;;12.16;100.00
51297;BME280;37380;45.186;9.792;2023-02-22T11:32:12;101243.03;;;11.92;100.00
51297;BME280;37380;45.186;9.792;2023-02-22T11:34:41;101291.41;;;12.24;100.00
51297;BME280;37380;45.186;9.792;2023-02-22T11:40:27;101129.66;;;11.71;100.00
51297;BME280;37380;45.186;9.792;2023-02-22T11:43:20;101276.25;;;12.64;100.00
51297;BME280;37380;45.186;9.792;2023-02-22T11:45:59;101263.97;;;12.63;100.00
51297;BME280;37380;45.186;9.792;2023-02-22T11:48:31;101275.66;;;12.73;100.00
51297;BME280;37380;45.186;9.792;2023-02-22T11:51:18;101281.03;;;12.76;100.00
51297;BME280;37380;45.186;9.792;2023-02-22T12:15:28;101238.69;;;12.90;100.00
51297;BME280;37380;45.186;9.792;2023-02-22T12:21:11;101230.81;;;12.39;100.00
51297;BME280;37380;45.186;9.792;2023-02-22T12:24:18;101117.44;;;11.71;100.00
51297;BME280;37380;45.186;9.792;2023-02-22T12:27:10;101241.31;;;12.39;100.00
51297;BME280;37380;45.186;9.792;2023-02-22T12:29:49;101136.91;;;11.78;100.00
51297;BME280;37380;45.186;9.792;2023-02-22T12:32:40;101224.53;;;12.34;100.00
51297;BME280;37380;45.186;9.792;2023-02-22T12:35:27;101084.59;;;11.79;100.00
51297;BME280;37380;45.186;9.792;2023-02-22T12:38:35;101233.44;;;12.39;100.00
51297;BME280;37380;45.186;9.792;2023-02-22T12:43:52;101218.59;;;12.40;100.00
51297;BME280;37380;45.186;9.792;2023-02-22T12:46:38;101186.25;;;12.14;100.00
51297;BME280;37380;45.186;9.792;2023-02-22T12:49:29;101209.69;;;12.35;100.00
51297;BME280;37380;45.186;9.792;2023-02-22T12:54:58;101150.72;;;12.22;100.00
51297;BME280;37380;45.186;9.792;2023-02-22T12:57:45;101163.47;;;12.37;100.00
51297;BME280;37380;45.186;9.792;2023-02-22T13:00:20;101175.56;;;12.59;100.00
51297;BME280;37380;45.186;9.792;2023-02-22T13:06:44;101207.88;;;12.83;100.00
51297;BME280;37380;45.186;9.792;2023-02-22T13:12:34;101201.19;;;12.93;100.00
51297;BME280;37380;45.186;9.792;2023-02-22T13:18:11;101186.03;;;12.84;100.00
51297;BME280;37380;45.186;9.792;2023-02-22T13:29:15;101195.03;;;13.18;100.00
51297;BME280;37380;45.186;9.792;2023-02-22T13:53:14;101158.25;;;14.37;100.00
51297;BME280;37380;45.186;9.792;2023-02-22T13:55:46;101114.72;;;14.15;100.00
51297;BME280;37380;45.186;9.792;2023-02-22T13:58:15;101135.41;;;14.36;100.00
51297;BME280;37380;45.186;9.792;2023-02-22T14:00:49;101143.59;;;14.47;100.00
51297;BME280;37380;45.186;9.792;2023-02-22T14:03:39;101019.72;;;13.67;100.00
51297;BME280;37380;45.186;9.792;2023-02-22T14:06:38;101147.19;;;14.50;100.00
51297;BME280;37380;45.186;9.792;2023-02-22T14:18:00;101156.59;;;14.41;100.00
51297;BME280;37380;45.186;9.792;2023-02-22T14:21:06;101044.03;;;13.59;100.00
51297;BME280;37380;45.186;9.792;2023-02-22T14:26:57;100978.03;;;13.16;100.00
51297;BME280;37380;45.186;9.792;2023-02-22T14:29:25;101021.06;;;13.22;100.00
51297;BME280;37380;45.186;9.792;2023-02-22T14:32:03;101146.09;;;14.09;100.00
51297;BME280;37380;45.186;9.792;2023-02-22T14:45:12;101144.25;;;13.45;100.00
51297;BME280;37380;45.186;9.792;2023-02-22T14:51:58;101133.19;;;13.26;100.00
51297;BME280;37380;45.186;9.792;2023-02-22T14:55:21;101147.00;;;13.21;100.00
51297;BME280;37380;45.186;9.792;2023-02-22T14:58:28;101146.75;;;13.13;100.00
51297;BME280;37380;45.186;9.792;2023-02-22T15:00:57;101077.00;;;12.64;100.00
51297;BME280;37380;45.186;9.792;2023-02-22T15:03:33;101140.09;;;12.97;100.00
51297;BME280;37380;45.186;9.792;2023-02-22T15:06:41;101042.84;;;12.34;100.00
51297;BME280;37380;45.186;9.792;2023-02-22T15:09:16;101060.16;;;12.30;100.00
51297;BME280;37380;45.186;9.792;2023-02-22T15:15:20;101139.22;;;12.97;100.00
51297;BME280;37380;45.186;9.792;2023-02-22T15:18:22;101135.00;;;13.00;100.00
51297;BME280;37380;45.186;9.792;2023-02-22T15:21:26;101128.66;;;13.22;100.00
51297;BME280;37380;45.186;9.792;2023-02-22T15:24:23;101104.59;;;12.80;100.00
51297;BME280;37380;45.186;9.792;2023-02-22T15:26:51;101118.06;;;12.90;100.00
51297;BME280;37380;45.186;9.792;2023-02-22T15:29:34;100970.44;;;12.37;100.00
51297;BME280;37380;45.186;9.792;2023-02-22T15:32:17;101134.06;;;13.00;100.00
51297;BME280;37380;45.186;9.792;2023-02-22T15:34:44;101103.06;;;12.86;100.00
51297;BME280;37380;45.186;9.792;2023-02-22T15:37:20;101124.28;;;12.94;100.00
51297;BME280;37380;45.186;9.792;2023-02-22T15:39:51;100957.00;;;11.74;100.00
51297;BME280;37380;45.186;9.792;2023-02-22T15:42:31;101087.91;;;12.51;100.00
51297;BME280;37380;45.186;9.792;2023-02-22T15:45:33;101018.91;;;11.97;100.00
51297;BME280;37380;45.186;9.792;2023-02-22T15:48:28;101067.72;;;12.21;100.00
51297;BME280;37380;45.186;9.792;2023-02-22T15:53:36;100996.34;;;11.77;100.00
51297;BME280;37380;45.186;9.792;2023-02-22T15:56:09;101079.94;;;12.20;100.00
51297;BME280;37380;45.186;9.792;2023-02-22T15:58:46;101022.72;;;11.82;100.00
51297;BME280;37380;45.186;9.792;2023-02-22T16:01:49;101112.34;;;12.24;100.00
51297;BME280;37380;45.186;9.792;2023-02-22T16:04:40;101069.06;;;11.84;100.00
51297;BME280;37380;45.186;9.792;2023-02-22T16:07:43;101052.75;;;11.67;100.00
51297;BME280;37380;45.186;9.792;2023-02-22T16:10:24;101102.59;;;11.94;100.00
51297;BME280;37380;45.186;9.792;2023-02-22T16:13:25;101103.47;;;11.95;100.00
51297;BME280;37380;45.186;9.792;2023-02-22T16:18:37;101089.59;;;11.73;100.00
51297;BME280;37380;45.186;9.792;2023-02-22T16:21:58;101101.13;;;11.78;100.00
51297;BME280;37380;45.186;9.792;2023-02-22T16:27:55;101072.84;;;11.44;100.00
51297;BME280;37380;45.186;9.792;2023-02-22T16:30:56;101081.31;;;11.61;100.00
51297;BME280;37380;45.186;9.792;2023-02-22T16:33:30;101054.75;;;11.26;100.00
51297;BME280;37380;45.186;9.792;2023-02-22T16:36:42;101102.84;;;11.54;100.00
51297;BME280;37380;45.186;9.792;2023-02-22T16:41:50;101079.06;;;11.24;100.00